Time;durP1;ratioP1;P1;durP2;ratioP2;P2;SDS_P1;SDS_P2;PMS_P1;PMS_P2;Temp;Humidity;BMP_temperature;BMP_pressure;BME280_temperature;BME280_humidity;BME280_pressure;Samples;Min_cycle;Max_cycle;Signal;HPM_P1;HPM_P2
2022/07/25 00:00:36;;;;;;;7.10;6.00;;;;;;;26.71;56.17;99975.03;5093510;28;20548;-62
2022/07/25 00:03:01;;;;;;;8.20;6.30;;;;;;;26.71;56.48;99969.25;5093404;28;20163;-62
2022/07/25 00:05:27;;;;;;;7.73;6.10;;;;;;;26.70;55.96;99967.59;5093162;28;20175;-62
2022/07/25 00:07:52;;;;;;;8.90;6.50;;;;;;;26.71;55.97;99965.53;5093424;28;20174;-62
2022/07/25 00:10:18;;;;;;;8.47;7.17;;;;;;;26.70;55.74;99966.78;5092767;28;20579;-62
2022/07/25 00:12:43;;;;;;;8.53;6.67;;;;;;;26.69;56.28;99963.06;5093404;28;20512;-62
2022/07/25 00:15:09;;;;;;;8.47;6.20;;;;;;;26.68;55.93;99952.75;5093396;28;20556;-62
2022/07/25 00:17:34;;;;;;;8.50;6.40;;;;;;;26.69;56.28;99954.38;5093027;28;20327;-62
2022/07/25 00:20:00;;;;;;;7.53;6.73;;;;;;;26.69;55.87;99947.78;5093184;28;20178;-62
2022/07/25 00:22:25;;;;;;;8.50;6.90;;;;;;;26.69;56.19;99951.47;5092792;28;20537;-62
2022/07/25 00:24:51;;;;;;;6.87;6.03;;;;;;;26.69;55.89;99953.56;5092180;28;20633;-62
2022/07/25 00:27:16;;;;;;;7.27;6.10;;;;;;;26.68;56.19;99941.16;5092608;28;20182;-62
2022/07/25 00:29:41;;;;;;;7.53;6.63;;;;;;;26.68;56.51;99949.84;5091987;28;20178;-62
2022/07/25 00:32:07;;;;;;;6.67;5.97;;;;;;;26.68;55.95;99946.94;5090815;28;20186;-62
2022/07/25 00:34:32;;;;;;;8.40;6.77;;;;;;;26.68;56.70;99944.06;5090723;28;20186;-62
2022/07/25 00:36:58;;;;;;;7.13;6.20;;;;;;;26.68;56.62;99946.13;5090337;28;20198;-62
2022/07/25 00:39:23;;;;;;;7.73;6.37;;;;;;;26.67;56.04;99942.44;5089174;28;20182;-62
2022/07/25 00:41:49;;;;;;;8.90;7.10;;;;;;;26.67;56.50;99938.69;5089843;28;20592;-62
2022/07/25 00:44:24;;;;;;;7.87;6.40;;;;;;;26.66;56.30;99932.09;5089746;28;20665;-62
2022/07/25 00:46:49;;;;;;;7.00;6.00;;;;;;;26.66;55.97;99932.09;5091031;28;20177;-62
2022/07/25 00:49:15;;;;;;;8.10;6.50;;;;;;;26.65;56.60;99927.56;5090987;28;20439;-62
2022/07/25 00:51:40;;;;;;;8.57;6.60;;;;;;;26.65;56.24;99926.75;5090793;28;20170;-62
2022/07/25 00:54:06;;;;;;;7.87;7.07;;;;;;;26.65;55.82;99927.56;5090896;28;20174;-62
2022/07/25 00:56:31;;;;;;;7.53;6.23;;;;;;;26.65;56.04;99933.34;5091686;28;20272;-62
2022/07/25 00:58:57;;;;;;;7.50;6.63;;;;;;;26.65;56.35;99926.75;5091009;28;20227;-62
2022/07/25 01:01:23;;;;;;;7.70;6.30;;;;;;;26.64;55.94;99925.13;5092837;28;20508;-62
2022/07/25 01:03:48;;;;;;;7.30;6.13;;;;;;;26.63;56.51;99926.38;5092046;28;20247;-62
2022/07/25 01:06:13;;;;;;;7.23;5.93;;;;;;;26.63;56.47;99914.78;5091917;28;20475;-62
2022/07/25 01:08:39;;;;;;;7.20;6.13;;;;;;;26.63;56.41;99921.41;5092013;28;20182;-62
2022/07/25 01:11:04;;;;;;;9.20;5.87;;;;;;;26.63;56.40;99918.50;5091877;28;20230;-62
2022/07/25 01:13:32;;;;;;;7.30;6.43;;;;;;;26.63;56.07;99903.19;5091853;28;20179;-62
2022/07/25 01:15:58;;;;;;;7.73;5.77;;;;;;;26.62;55.93;99898.66;5092075;28;20677;-62
2022/07/25 01:18:23;;;;;;;7.10;6.37;;;;;;;26.60;55.87;99893.31;5092178;28;20462;-62
2022/07/25 01:20:49;;;;;;;8.73;7.07;;;;;;;26.59;56.45;99891.69;5091263;28;20175;-62
2022/07/25 01:23:14;;;;;;;11.53;7.00;;;;;;;26.58;56.38;99890.06;5091567;28;20182;-62
2022/07/25 01:25:39;;;;;;;7.77;6.43;;;;;;;26.59;56.22;99894.59;5091769;28;20170;-62
2022/07/25 01:28:05;;;;;;;8.00;6.33;;;;;;;26.60;56.31;99886.72;5091680;28;20182;-62
2022/07/25 01:30:30;;;;;;;6.40;5.73;;;;;;;26.60;56.29;99886.72;5091694;28;20673;-62
2022/07/25 01:32:56;;;;;;;7.17;6.30;;;;;;;26.60;56.29;99881.72;5091594;28;20198;-62
2022/07/25 01:35:21;;;;;;;8.10;6.53;;;;;;;26.60;55.85;99878.84;5090791;28;20613;-62
2022/07/25 01:37:46;;;;;;;8.20;6.60;;;;;;;26.60;56.13;99880.94;5091405;28;20236;-62
2022/07/25 01:40:12;;;;;;;7.67;6.73;;;;;;;26.59;55.58;99885.91;5091481;28;20167;-62
2022/07/25 01:42:38;;;;;;;6.80;6.10;;;;;;;26.57;56.14;99893.41;5091464;28;20170;-62
2022/07/25 01:45:03;;;;;;;8.63;6.50;;;;;;;26.55;56.18;99896.72;5090651;28;20178;-62
2022/07/25 01:47:29;;;;;;;8.33;6.80;;;;;;;26.54;55.60;99877.69;5091480;28;20174;-62
2022/07/25 01:49:54;;;;;;;9.53;6.70;;;;;;;26.55;55.92;99888.03;5090972;28;20182;-62
2022/07/25 01:52:20;;;;;;;7.80;6.80;;;;;;;26.55;56.13;99879.34;5091353;28;20227;-62
2022/07/25 01:54:45;;;;;;;10.00;6.77;;;;;;;26.54;56.03;99883.50;5091049;28;20194;-63
2022/07/25 01:57:11;;;;;;;7.70;6.40;;;;;;;26.52;55.97;99880.25;5091425;28;20182;-62
2022/07/25 01:59:39;;;;;;;9.53;7.67;;;;;;;26.52;55.34;99876.50;5091069;28;20228;-62
2022/07/25 02:02:06;;;;;;;9.13;7.97;;;;;;;26.51;56.12;99878.59;5091457;28;20178;-62
2022/07/25 02:04:31;;;;;;;7.60;5.67;;;;;;;26.51;55.81;99889.38;5090613;28;20416;-62
2022/07/25 02:06:57;;;;;;;9.60;8.03;;;;;;;26.48;55.62;99881.56;5090954;28;20491;-62
2022/07/25 02:09:22;;;;;;;7.50;6.47;;;;;;;26.47;55.49;99886.53;5090355;28;20234;-62
2022/07/25 02:11:47;;;;;;;9.40;7.60;;;;;;;26.44;55.52;99870.06;5089314;28;20182;-62
2022/07/25 02:14:13;;;;;;;6.97;6.27;;;;;;;26.44;55.82;99866.34;5088112;28;20250;-62
2022/07/25 02:16:38;;;;;;;10.43;6.67;;;;;;;26.46;55.78;99858.03;5088079;28;20202;-62
2022/07/25 02:19:04;;;;;;;9.07;6.50;;;;;;;26.46;55.50;99863.81;5087662;28;20202;-62
2022/07/25 02:21:29;;;;;;;11.33;7.50;;;;;;;26.48;56.04;99867.91;5088814;28;20605;-62
2022/07/25 02:23:54;;;;;;;7.60;6.80;;;;;;;26.49;55.54;99862.94;5088994;28;20270;-62
2022/07/25 02:26:20;;;;;;;11.20;7.63;;;;;;;26.48;55.52;99873.69;5088934;28;20201;-62
2022/07/25 02:28:45;;;;;;;8.90;7.40;;;;;;;26.48;55.79;99865.00;5088756;28;20654;-62
2022/07/25 02:31:11;;;;;;;9.03;7.40;;;;;;;26.47;55.83;99863.38;5089262;28;20186;-62
2022/07/25 02:33:36;;;;;;;7.70;6.90;;;;;;;26.47;55.96;99863.38;5088297;28;20640;-62
2022/07/25 02:36:02;;;;;;;11.20;7.57;;;;;;;26.48;55.99;99867.91;5089148;28;20202;-62
2022/07/25 02:38:27;;;;;;;9.33;7.50;;;;;;;26.47;55.77;99872.06;5088755;28;20243;-62
2022/07/25 02:40:53;;;;;;;8.30;6.97;;;;;;;26.46;55.68;99873.34;5090101;28;20205;-62
2022/07/25 02:43:18;;;;;;;7.80;7.00;;;;;;;26.46;55.88;99864.66;5090728;28;20637;-62
2022/07/25 02:45:44;;;;;;;9.97;7.13;;;;;;;26.46;55.96;99870.44;5089173;28;20316;-62
2022/07/25 02:48:09;;;;;;;7.13;6.27;;;;;;;26.48;55.56;99867.06;5091197;28;20644;-62
2022/07/25 02:50:35;;;;;;;10.67;7.00;;;;;;;26.47;56.03;99866.28;5092683;28;20572;-62
2022/07/25 02:53:00;;;;;;;9.30;7.50;;;;;;;26.47;56.03;99866.28;5092949;28;20233;-62
2022/07/25 02:55:25;;;;;;;8.10;7.10;;;;;;;26.47;55.31;99865.44;5092593;28;20224;-62
2022/07/25 02:57:51;;;;;;;7.53;6.73;;;;;;;26.46;55.28;99858.88;5093591;28;20167;-62
2022/07/25 03:00:16;;;;;;;7.83;6.73;;;;;;;26.46;55.90;99858.88;5094425;28;20181;-62
2022/07/25 03:02:42;;;;;;;9.03;7.80;;;;;;;26.46;55.94;99858.03;5094564;28;20174;-62
2022/07/25 03:05:08;;;;;;;7.80;6.80;;;;;;;26.46;55.40;99858.88;5094258;28;20591;-62
2022/07/25 03:07:34;;;;;;;10.03;6.80;;;;;;;26.46;55.96;99855.97;5094352;28;20205;-62
2022/07/25 03:10:00;;;;;;;8.30;7.23;;;;;;;26.45;55.46;99857.19;5094080;28;20464;-62
2022/07/25 03:12:25;;;;;;;10.30;6.97;;;;;;;26.45;55.65;99853.50;5094115;28;20626;-62
2022/07/25 03:14:50;;;;;;;9.50;7.17;;;;;;;26.45;55.68;99860.09;5094093;28;20649;-62
2022/07/25 03:17:16;;;;;;;8.30;7.00;;;;;;;26.44;55.64;99857.66;5094155;28;20175;-62
2022/07/25 03:19:41;;;;;;;7.30;6.53;;;;;;;26.43;55.43;99853.94;5094043;28;20618;-62
2022/07/25 03:22:07;;;;;;;8.03;7.20;;;;;;;26.42;55.45;99852.31;5094319;28;20175;-62
2022/07/25 03:24:32;;;;;;;9.43;7.93;;;;;;;26.40;55.30;99866.41;5093866;28;20549;-62
2022/07/25 03:26:58;;;;;;;10.73;6.63;;;;;;;26.40;55.36;99863.50;5093711;28;20546;-62
2022/07/25 03:29:23;;;;;;;8.83;7.37;;;;;;;26.41;55.75;99858.56;5094111;28;20174;-62
2022/07/25 03:31:48;;;;;;;10.00;7.77;;;;;;;26.40;55.62;99860.63;5093646;28;20675;-62
2022/07/25 03:34:14;;;;;;;12.00;7.30;;;;;;;26.41;56.06;99853.59;5092308;28;20182;-62
2022/07/25 03:36:39;;;;;;;8.33;7.47;;;;;;;26.42;55.43;99854.38;5092611;28;20263;-62
2022/07/25 03:39:05;;;;;;;10.20;7.63;;;;;;;26.41;55.33;99850.69;5092488;28;20186;-62
2022/07/25 03:41:30;;;;;;;10.67;7.93;;;;;;;26.40;55.74;99854.03;5093607;28;20201;-63
2022/07/25 03:43:55;;;;;;;8.30;7.50;;;;;;;26.41;55.32;99855.66;5093774;28;20625;-62
2022/07/25 03:46:21;;;;;;;7.43;6.63;;;;;;;26.38;55.12;99848.69;5093831;28;20178;-62
2022/07/25 03:48:47;;;;;;;7.90;7.00;;;;;;;26.38;55.11;99854.47;5093315;28;20240;-62
2022/07/25 03:51:12;;;;;;;7.57;6.77;;;;;;;26.39;55.26;99855.31;5093676;28;20810;-62
2022/07/25 03:54:00;;;;;;;8.60;7.70;;;;;;;26.38;55.27;99845.78;5093445;28;20210;-62
2022/07/25 03:56:23;;;;;;;9.00;7.10;;;;;;;26.38;55.19;99850.75;5093113;28;20225;-62
2022/07/25 03:58:49;;;;;;;8.30;7.50;;;;;;;26.37;55.56;99849.94;5092555;28;20424;-62
2022/07/25 04:01:14;;;;;;;9.30;8.20;;;;;;;26.37;55.75;99849.94;5093243;28;20261;-62
2022/07/25 04:03:39;;;;;;;7.80;6.60;;;;;;;26.36;55.64;99841.69;5093485;28;20182;-62
2022/07/25 04:06:05;;;;;;;6.97;6.30;;;;;;;26.35;55.51;99843.75;5092787;28;20202;-62
2022/07/25 04:08:30;;;;;;;9.00;7.10;;;;;;;26.36;55.11;99851.22;5093410;28;20723;-62
2022/07/25 04:10:56;;;;;;;8.77;7.03;;;;;;;26.36;55.35;99842.53;5092927;28;20222;-62
2022/07/25 04:13:21;;;;;;;8.80;7.40;;;;;;;26.36;55.11;99850.38;5093282;28;20194;-62
2022/07/25 04:15:46;;;;;;;8.50;7.10;;;;;;;26.33;55.62;99846.31;5092845;28;20199;-62
2022/07/25 04:18:12;;;;;;;7.23;6.53;;;;;;;26.32;55.47;99852.53;5093136;28;20174;-62
2022/07/25 04:20:37;;;;;;;11.50;7.40;;;;;;;26.31;55.08;99851.72;5093003;28;20654;-62
2022/07/25 04:23:03;;;;;;;9.23;6.83;;;;;;;26.30;55.61;99844.28;5093221;28;20189;-62
2022/07/25 04:25:29;;;;;;;7.53;6.57;;;;;;;26.33;55.79;99851.25;5092890;28;20182;-62
2022/07/25 04:27:55;;;;;;;8.53;7.60;;;;;;;26.32;55.81;99852.53;5092870;28;20231;-62
2022/07/25 04:30:20;;;;;;;8.00;6.77;;;;;;;26.31;55.12;99845.94;5092611;28;20439;-62
2022/07/25 04:32:46;;;;;;;9.40;6.67;;;;;;;26.31;55.41;99839.31;5092840;28;20535;-62
2022/07/25 04:35:11;;;;;;;9.50;7.40;;;;;;;26.30;55.20;99844.28;5092104;28;20194;-62
2022/07/25 04:37:36;;;;;;;9.27;7.37;;;;;;;26.32;54.92;99847.56;5092583;28;20526;-62
2022/07/25 04:40:03;;;;;;;9.67;7.70;;;;;;;26.32;55.51;99836.00;5092482;28;20555;-62
2022/07/25 04:42:29;;;;;;;8.53;6.50;;;;;;;26.34;55.25;99839.25;5092710;28;20637;-62
2022/07/25 04:44:54;;;;;;;7.87;7.07;;;;;;;26.36;54.89;99835.91;5092079;28;20478;-62
2022/07/25 04:47:20;;;;;;;8.07;7.07;;;;;;;26.37;55.47;99828.84;5092676;28;20190;-62
2022/07/25 04:49:45;;;;;;;7.90;6.33;;;;;;;26.38;54.84;99827.59;5090434;28;20174;-62
2022/07/25 04:52:11;;;;;;;8.67;7.10;;;;;;;26.39;54.76;99830.03;5090555;28;20181;-62
2022/07/25 04:54:36;;;;;;;8.63;7.70;;;;;;;26.38;55.39;99819.72;5090207;28;20189;-62
2022/07/25 04:57:03;;;;;;;7.43;6.53;;;;;;;26.38;55.05;99816.84;5090009;28;20179;-62
2022/07/25 04:59:29;;;;;;;8.87;6.90;;;;;;;26.40;55.05;99820.09;5090802;28;20171;-62
2022/07/25 05:01:54;;;;;;;7.63;6.77;;;;;;;26.40;55.17;99820.09;5092155;28;20420;-62
2022/07/25 05:04:20;;;;;;;8.63;7.20;;;;;;;26.41;54.88;99813.06;5092290;28;20182;-62
2022/07/25 05:06:45;;;;;;;8.00;7.17;;;;;;;26.42;54.83;99819.66;5092087;28;20248;-62
2022/07/25 05:09:11;;;;;;;11.13;7.30;;;;;;;26.41;54.95;99821.75;5091713;28;20222;-62
2022/07/25 05:11:36;;;;;;;7.60;6.60;;;;;;;26.41;55.29;99818.03;5092279;28;20175;-62
2022/07/25 05:14:02;;;;;;;9.57;7.10;;;;;;;26.39;54.84;99818.47;5091759;28;20313;-62
2022/07/25 05:16:27;;;;;;;7.90;7.10;;;;;;;26.39;55.46;99815.56;5091892;28;20557;-62
2022/07/25 05:18:52;;;;;;;8.43;6.67;;;;;;;26.39;55.37;99817.66;5091199;28;20174;-62
2022/07/25 05:21:18;;;;;;;8.07;7.27;;;;;;;26.37;55.10;99814.38;5091882;28;20175;-62
2022/07/25 05:23:43;;;;;;;9.23;7.10;;;;;;;26.37;55.25;99806.53;5091638;28;20194;-62
2022/07/25 05:26:09;;;;;;;9.87;7.80;;;;;;;26.37;55.17;99805.69;5090263;28;20586;-62
2022/07/25 05:28:34;;;;;;;7.50;6.70;;;;;;;26.35;55.43;99811.91;5090139;28;20179;-62
2022/07/25 05:31:00;;;;;;;8.67;7.53;;;;;;;26.35;55.39;99817.72;5090143;28;20174;-62
2022/07/25 05:33:25;;;;;;;10.10;7.10;;;;;;;26.33;55.08;99802.06;5090105;28;20227;-62
2022/07/25 05:35:51;;;;;;;10.53;7.47;;;;;;;26.32;55.33;99817.78;5090092;28;20280;-62
2022/07/25 05:38:16;;;;;;;12.40;8.07;;;;;;;26.31;55.62;99805.41;5090525;28;20622;-62
2022/07/25 05:40:42;;;;;;;10.50;7.60;;;;;;;26.32;55.15;99797.53;5091148;28;20159;-63
2022/07/25 05:43:07;;;;;;;8.33;7.33;;;;;;;26.31;55.58;99802.53;5090998;28;20170;-62
2022/07/25 05:45:33;;;;;;;10.57;7.83;;;;;;;26.31;55.69;99817.00;5091228;28;20174;-62
2022/07/25 05:47:58;;;;;;;10.13;8.23;;;;;;;26.31;55.21;99813.28;5091753;28;20177;-62
2022/07/25 05:50:24;;;;;;;9.33;7.73;;;;;;;26.31;55.94;99813.28;5091012;28;20623;-62
2022/07/25 05:52:49;;;;;;;9.27;7.87;;;;;;;26.30;55.50;99815.34;5091642;28;20171;-62
2022/07/25 05:55:15;;;;;;;8.87;7.97;;;;;;;26.26;55.96;99823.31;5091305;28;20818;-62
2022/07/25 05:57:41;;;;;;;10.10;8.37;;;;;;;26.22;55.99;99816.78;5091033;28;20182;-62
2022/07/25 06:00:07;;;;;;;11.47;8.30;;;;;;;26.23;56.23;99808.88;5091175;28;20756;-62
2022/07/25 06:02:33;;;;;;;14.53;8.90;;;;;;;26.24;55.63;99804.75;5090314;28;20187;-62
2022/07/25 06:04:58;;;;;;;8.93;7.50;;;;;;;26.23;55.78;99809.72;5089760;28;20408;-62
2022/07/25 06:07:24;;;;;;;10.10;8.17;;;;;;;26.23;55.80;99809.72;5089606;28;20569;-62
2022/07/25 06:09:49;;;;;;;11.47;8.47;;;;;;;26.22;56.07;99802.28;5089701;28;20348;-62
2022/07/25 06:12:15;;;;;;;9.80;8.60;;;;;;;26.21;56.15;99803.56;5089493;28;20178;-62
2022/07/25 06:14:40;;;;;;;9.53;7.87;;;;;;;26.21;56.19;99803.56;5087919;28;20178;-62
2022/07/25 06:17:05;;;;;;;10.70;8.33;;;;;;;26.20;55.87;99807.69;5090079;28;20190;-62
2022/07/25 06:19:31;;;;;;;9.77;8.77;;;;;;;26.20;55.62;99793.22;5091136;28;20183;-62
2022/07/25 06:21:56;;;;;;;12.83;8.60;;;;;;;26.22;55.56;99808.09;5090280;28;20185;-62
2022/07/25 06:24:22;;;;;;;10.83;8.50;;;;;;;26.21;56.16;99811.41;5090940;28;20546;-63
2022/07/25 06:26:47;;;;;;;11.57;9.60;;;;;;;26.21;55.62;99803.56;5090947;28;20170;-62
2022/07/25 06:29:12;;;;;;;10.30;8.23;;;;;;;26.20;55.80;99801.91;5088895;28;20477;-62
2022/07/25 06:31:38;;;;;;;14.20;9.70;;;;;;;26.21;56.06;99791.16;5090804;28;20186;-62
2022/07/25 06:34:03;;;;;;;10.77;9.00;;;;;;;26.21;55.63;99789.09;5090773;28;20206;-62
2022/07/25 06:36:29;;;;;;;14.20;9.13;;;;;;;26.21;55.38;99789.09;5090667;28;20301;-62
2022/07/25 06:38:54;;;;;;;13.33;9.40;;;;;;;26.20;55.91;99799.00;5090883;28;20584;-62
2022/07/25 06:41:20;;;;;;;10.47;9.17;;;;;;;26.15;55.81;99802.44;5090270;28;20170;-62
2022/07/25 06:43:45;;;;;;;13.37;9.03;;;;;;;26.11;56.59;99804.59;5090573;28;20175;-62
2022/07/25 06:46:10;;;;;;;10.27;9.17;;;;;;;26.09;56.67;99795.53;5089349;28;20212;-62
2022/07/25 06:48:36;;;;;;;11.13;9.87;;;;;;;26.17;56.11;99797.03;5090888;28;20159;-62
2022/07/25 06:51:01;;;;;;;14.83;10.10;;;;;;;26.19;55.83;99787.91;5089301;28;20251;-62
2022/07/25 06:53:27;;;;;;;13.57;9.37;;;;;;;26.19;55.66;99794.50;5090724;28;20190;-62
2022/07/25 06:55:52;;;;;;;13.63;9.20;;;;;;;26.21;55.63;99803.56;5090681;28;20243;-62
2022/07/25 06:58:18;;;;;;;13.47;9.37;;;;;;;26.17;56.34;99785.44;5090717;28;20178;-62
2022/07/25 07:00:43;;;;;;;11.23;9.57;;;;;;;26.22;55.67;99796.50;5090281;28;20178;-62
2022/07/25 07:03:08;;;;;;;11.53;9.50;;;;;;;26.09;56.84;99789.75;5090552;28;20182;-62
2022/07/25 07:05:35;;;;;;;12.63;10.13;;;;;;;26.15;56.58;99793.75;5090661;28;20171;-62
2022/07/25 07:08:01;;;;;;;12.17;8.60;;;;;;;26.19;56.35;99785.81;5090118;28;20186;-62
2022/07/25 07:10:26;;;;;;;15.57;10.07;;;;;;;26.19;56.10;99785.81;5090244;28;20499;-62
2022/07/25 07:13:11;;;;;;;12.20;10.23;;;;;;;26.20;56.22;99783.75;5090296;28;20265;-62
2022/07/25 07:15:37;;;;;;;11.53;10.07;;;;;;;26.22;56.21;99784.09;5090444;28;20665;-62
2022/07/25 07:18:03;;;;;;;11.93;10.03;;;;;;;26.24;55.71;99785.28;5090253;28;20481;-62
2022/07/25 07:20:28;;;;;;;12.17;9.80;;;;;;;26.24;55.69;99782.41;5090295;28;20178;-62
2022/07/25 07:22:54;;;;;;;13.50;9.40;;;;;;;26.27;56.21;99780.69;5089761;28;20182;-62
2022/07/25 07:25:20;;;;;;;18.73;10.90;;;;;;;26.27;55.77;99789.38;5090180;28;20175;-62
2022/07/25 07:27:45;;;;;;;13.90;9.67;;;;;;;26.28;56.26;99786.03;5090029;28;20174;-62
2022/07/25 07:30:13;;;;;;;12.27;10.40;;;;;;;26.31;55.27;99776.47;5089050;28;20182;-62
2022/07/25 07:32:39;;;;;;;11.23;10.13;;;;;;;26.32;55.22;99783.06;5088680;28;20665;-62
2022/07/25 07:35:05;;;;;;;10.57;9.47;;;;;;;26.31;55.81;99782.25;5091512;28;20483;-62
2022/07/25 07:37:30;;;;;;;12.50;10.43;;;;;;;26.32;55.77;99786.78;5092365;28;20510;-62
2022/07/25 07:39:56;;;;;;;12.80;10.27;;;;;;;26.35;55.35;99787.97;5092915;28;20424;-62
2022/07/25 07:42:21;;;;;;;12.70;10.00;;;;;;;26.36;55.83;99778.84;5092948;28;20594;-62
2022/07/25 07:44:46;;;;;;;12.17;9.87;;;;;;;26.36;55.58;99784.63;5092484;28;20190;-62
2022/07/25 07:47:12;;;;;;;12.97;10.47;;;;;;;26.39;56.11;99792.41;5092110;28;20186;-62
2022/07/25 07:49:37;;;;;;;14.23;10.67;;;;;;;26.39;56.06;99786.63;5091967;28;20185;-62
2022/07/25 07:52:03;;;;;;;11.93;10.63;;;;;;;26.39;55.62;99789.50;5090647;28;20522;-62
2022/07/25 07:57:13;;;;;;;12.80;10.60;;;;;;;26.42;55.68;99793.59;5092128;28;20236;-62
2022/07/25 07:59:38;;;;;;;14.00;11.00;;;;;;;26.43;55.83;99786.53;5091568;28;20428;-62
2022/07/25 08:02:03;;;;;;;13.77;10.40;;;;;;;26.45;55.35;99781.13;5092493;28;21081;-62
2022/07/25 08:04:29;;;;;;;12.73;10.83;;;;;;;26.46;56.28;99777.78;5093000;28;20541;-62
2022/07/25 08:06:54;;;;;;;12.70;11.37;;;;;;;26.48;56.04;99786.84;5092839;28;20191;-62
2022/07/25 08:09:20;;;;;;;12.40;10.07;;;;;;;26.49;56.26;99773.19;5090286;28;20275;-62
2022/07/25 08:11:45;;;;;;;13.73;10.70;;;;;;;26.50;56.28;99781.41;5090451;28;20900;-62
2022/07/25 08:14:11;;;;;;;11.37;10.17;;;;;;;26.50;56.37;99781.41;5090317;28;20182;-62
2022/07/25 08:16:36;;;;;;;16.80;11.33;;;;;;;26.55;56.07;99774.28;5090739;28;20652;-62
2022/07/25 08:19:01;;;;;;;13.57;11.17;;;;;;;26.54;56.04;99767.66;5090298;28;20175;-62
2022/07/25 08:21:27;;;;;;;14.83;11.10;;;;;;;26.59;55.79;99781.63;5091406;28;20586;-62
2022/07/25 08:23:53;;;;;;;11.67;9.93;;;;;;;26.59;55.87;99775.84;5090823;28;20536;-62
2022/07/25 08:26:18;;;;;;;12.50;11.17;;;;;;;26.59;55.76;99778.75;5091782;28;20186;-62
2022/07/25 08:28:44;;;;;;;14.17;10.93;;;;;;;26.61;55.49;99778.31;5090984;28;20650;-62
2022/07/25 08:31:09;;;;;;;11.93;10.17;;;;;;;26.65;55.23;99773.25;5091113;28;20235;-62
2022/07/25 08:33:35;;;;;;;13.60;12.03;;;;;;;26.64;55.54;99765.84;5091422;28;20707;-62
2022/07/25 08:36:00;;;;;;;14.57;10.93;;;;;;;26.67;54.79;99773.59;5091384;28;20228;-62
2022/07/25 08:38:26;;;;;;;13.93;10.47;;;;;;;26.70;54.80;99770.63;5091676;28;20186;-62
2022/07/25 08:40:53;;;;;;;13.10;11.13;;;;;;;26.70;54.28;99770.63;5091265;28;20171;-62
2022/07/25 08:43:19;;;;;;;12.33;10.00;;;;;;;26.69;54.76;99771.09;5091134;28;20420;-62
2022/07/25 08:45:46;;;;;;;22.70;11.07;;;;;;;26.66;55.30;99767.00;5090586;28;20404;-62
2022/07/25 08:48:11;;;;;;;13.93;10.93;;;;;;;26.73;55.06;99763.94;5090875;28;20167;-62
2022/07/25 08:50:37;;;;;;;11.97;10.77;;;;;;;26.75;54.80;99764.28;5089407;28;20964;-62
2022/07/25 08:53:02;;;;;;;12.17;10.50;;;;;;;26.73;54.62;99766.84;5090953;28;20182;-62
2022/07/25 08:55:28;;;;;;;12.60;11.30;;;;;;;26.80;54.23;99757.97;5091083;28;20198;-62
2022/07/25 08:57:54;;;;;;;15.70;10.30;;;;;;;26.77;54.25;99758.88;5092164;28;20546;-62
2022/07/25 09:00:21;;;;;;;13.30;10.70;;;;;;;26.84;54.08;99763.69;5092435;28;20170;-62
2022/07/25 09:02:58;;;;;;;13.47;11.03;;;;;;;26.89;54.47;99760.25;5092263;28;20178;-62
2022/07/25 09:05:24;;;;;;;15.50;12.27;;;;;;;26.84;54.45;99755.00;5092487;28;20443;-62
2022/07/25 09:07:50;;;;;;;15.03;11.20;;;;;;;26.86;55.26;99752.47;5092294;28;20546;-62
2022/07/25 09:10:16;;;;;;;12.07;10.37;;;;;;;26.89;55.16;99754.47;5091181;28;20628;-62
2022/07/25 09:12:42;;;;;;;13.60;10.47;;;;;;;26.86;54.61;99749.56;5090668;28;20558;-62
2022/07/25 09:15:07;;;;;;;13.33;11.33;;;;;;;26.90;54.59;99742.41;5088847;28;20480;-62
2022/07/25 09:17:36;;;;;;;10.63;9.53;;;;;;;26.86;54.87;99744.59;5090217;28;20171;-62
2022/07/25 09:20:01;;;;;;;10.80;9.70;;;;;;;26.91;54.17;99738.25;5089352;28;20284;-62
2022/07/25 09:22:29;;;;;;;12.37;10.23;;;;;;;26.89;54.15;99737.09;5089010;28;20491;-62
2022/07/25 09:24:54;;;;;;;13.80;10.53;;;;;;;26.94;54.26;99733.66;5089335;28;20197;-62
2022/07/25 09:27:20;;;;;;;13.23;10.27;;;;;;;26.96;54.54;99725.31;5091628;28;20916;-62
2022/07/25 09:29:45;;;;;;;12.23;10.77;;;;;;;27.02;54.47;99727.22;5090123;28;20537;-62
2022/07/25 09:32:19;;;;;;;12.40;11.10;;;;;;;26.97;54.67;99729.81;5090205;28;20633;-62
2022/07/25 09:34:45;;;;;;;13.57;10.30;;;;;;;27.01;54.47;99728.50;5090573;28;20599;-62
2022/07/25 09:37:12;;;;;;;11.43;10.23;;;;;;;27.00;54.43;99726.03;5090289;28;20443;-62
2022/07/25 09:39:44;;;;;;;10.93;9.70;;;;;;;27.05;54.21;99729.19;5090624;28;20421;-62
2022/07/25 09:42:25;;;;;;;12.13;10.20;;;;;;;27.04;53.66;99727.56;5090060;28;20895;-62
2022/07/25 09:44:58;;;;;;;12.50;10.40;;;;;;;27.07;53.43;99723.78;5090760;28;20488;-62
2022/07/25 09:47:26;;;;;;;11.33;9.77;;;;;;;27.02;53.95;99723.50;5091365;28;20506;-62
2022/07/25 09:49:51;;;;;;;13.73;9.87;;;;;;;27.06;54.16;99725.03;5091260;28;20412;-62
2022/07/25 09:52:17;;;;;;;12.10;9.47;;;;;;;27.02;54.33;99727.22;5090448;28;20938;-62
2022/07/25 09:54:42;;;;;;;13.93;10.80;;;;;;;27.14;53.29;99731.47;5089611;28;20186;-62
2022/07/25 09:57:08;;;;;;;11.77;10.07;;;;;;;27.06;53.33;99727.13;5090432;28;20254;-62
2022/07/25 09:59:33;;;;;;;12.60;9.73;;;;;;;27.08;54.20;99721.66;5089279;28;20219;-62
2022/07/25 10:02:25;;;;;;;13.30;10.10;;;;;;;27.23;52.86;99718.00;5090084;28;20642;-62
2022/07/25 10:05:02;;;;;;;15.97;10.00;;;;;;;27.18;53.03;99718.53;5089535;28;20244;-62
2022/07/25 10:07:27;;;;;;;11.87;9.50;;;;;;;27.19;52.55;99716.47;5089814;28;20520;-62
2022/07/25 10:09:53;;;;;;;11.60;9.60;;;;;;;27.20;52.48;99713.09;5087983;28;20971;-62
2022/07/25 10:12:20;;;;;;;13.17;10.40;;;;;;;27.45;51.91;99710.34;5089736;28;20174;-62
2022/07/25 10:15:07;;;;;;;12.27;9.70;;;;;;;27.38;52.88;99698.94;5091005;28;20178;-62
2022/07/25 10:17:34;;;;;;;11.03;9.73;;;;;;;27.29;52.75;99698.78;5090904;28;20427;-62
2022/07/25 10:20:00;;;;;;;14.10;10.90;;;;;;;27.22;52.77;99709.75;5089586;28;20456;-62
2022/07/25 10:22:41;;;;;;;9.73;8.73;;;;;;;27.27;52.47;99707.13;5089267;28;20417;-62
2022/07/25 10:25:18;;;;;;;12.47;10.00;;;;;;;27.40;51.83;99704.28;5090760;28;20186;-62
2022/07/25 10:27:47;;;;;;;11.60;9.60;;;;;;;27.34;52.53;99704.03;5091386;28;20470;-62
2022/07/25 10:30:20;;;;;;;10.67;9.57;;;;;;;27.40;52.91;99704.28;5090876;28;20442;-62
2022/07/25 10:33:14;;;;;;;12.50;9.00;;;;;;;27.41;51.91;99705.91;5090289;28;20908;-62
2022/07/25 10:35:40;;;;;;;16.67;9.90;;;;;;;27.42;52.13;99699.66;5089703;28;20520;-62
2022/07/25 10:38:05;;;;;;;14.47;10.00;;;;;;;27.49;51.61;99695.75;5089298;28;20515;-62
2022/07/25 10:40:38;;;;;;;12.60;9.87;;;;;;;27.46;51.43;99685.88;5088146;28;20177;-62
2022/07/25 10:43:18;;;;;;;15.37;10.17;;;;;;;27.47;51.69;99692.47;5090802;28;20250;-62
2022/07/25 10:45:51;;;;;;;13.53;9.73;;;;;;;27.44;51.43;99694.22;5088599;28;20404;-62
2022/07/25 10:48:23;;;;;;;11.60;9.23;;;;;;;27.50;51.26;99698.19;5088818;28;20499;-62
2022/07/25 10:50:51;;;;;;;12.27;9.37;;;;;;;27.58;51.22;99690.91;5088490;28;20408;-62
2022/07/25 10:53:33;;;;;;;10.70;9.27;;;;;;;27.49;51.54;99689.97;5089113;28;20789;-62
2022/07/25 10:56:08;;;;;;;11.83;9.60;;;;;;;27.53;51.54;99693.56;5088892;28;20452;-62
2022/07/25 10:59:04;;;;;;;9.70;8.70;;;;;;;27.59;51.27;99683.84;5069083;28;20401;-62
2022/07/25 11:01:30;;;;;;;9.50;8.50;;;;;;;27.60;51.23;99679.66;5070263;28;20448;-62
2022/07/25 11:04:00;;;;;;;11.87;9.60;;;;;;;27.58;51.10;99676.41;5070500;28;20413;-62
2022/07/25 11:06:28;;;;;;;13.70;9.60;;;;;;;27.66;51.10;99677.03;5070509;28;20432;-62
2022/07/25 11:08:56;;;;;;;10.80;9.57;;;;;;;27.68;51.82;99675.28;5072416;28;20435;-62
2022/07/25 11:11:38;;;;;;;13.97;10.37;;;;;;;27.62;51.45;99674.25;5083232;28;20412;-62
2022/07/25 11:14:04;;;;;;;13.20;9.70;;;;;;;27.61;51.72;99671.78;5094036;28;20420;-62
2022/07/25 11:16:29;;;;;;;12.87;10.20;;;;;;;27.68;51.98;99675.28;5094211;28;20974;-62
2022/07/25 11:18:55;;;;;;;10.60;9.10;;;;;;;27.67;51.33;99679.47;5094432;28;20177;-62
2022/07/25 11:21:20;;;;;;;10.87;9.10;;;;;;;27.67;51.54;99679.47;5094323;28;20178;-62
2022/07/25 11:23:50;;;;;;;10.80;9.70;;;;;;;27.75;50.64;99677.97;5094362;28;20609;-62
2022/07/25 11:26:15;;;;;;;12.13;9.63;;;;;;;27.73;51.23;99671.84;5093965;28;20194;-62